createdAt,value
2018-05-10T00:00:06.036Z,19.27
2018-05-10T00:01:59.036Z,19.31
2018-05-10T00:02:59.102Z,19.24
2018-05-10T00:04:52.105Z,19.11
2018-05-10T00:05:52.163Z,19.09
2018-05-10T00:07:45.164Z,19.15
2018-05-10T00:08:45.231Z,19.12
2018-05-10T00:10:38.231Z,19.12
2018-05-10T00:11:38.291Z,19.15
2018-05-10T00:13:31.294Z,18.98
2018-05-10T00:14:31.353Z,19.00
2018-05-10T00:16:24.362Z,19.02
2018-05-10T00:17:24.424Z,19.07
2018-05-10T00:19:17.428Z,19.07
2018-05-10T00:20:17.485Z,19.11
2018-05-10T00:22:10.484Z,19.11
2018-05-10T00:23:10.546Z,19.19
2018-05-10T00:25:03.547Z,19.33
2018-05-10T00:26:03.609Z,19.34
2018-05-10T00:27:56.607Z,19.45
2018-05-10T00:28:56.678Z,19.37
2018-05-10T00:30:49.671Z,19.34
2018-05-10T00:31:49.732Z,19.41
2018-05-10T00:33:42.735Z,19.31
2018-05-10T00:34:42.795Z,19.24
2018-05-10T00:36:35.801Z,19.11
2018-05-10T00:37:35.854Z,19.12
2018-05-10T00:39:28.865Z,19.00
2018-05-10T00:40:28.926Z,19.12
2018-05-10T00:42:21.923Z,19.09
2018-05-10T00:43:21.991Z,19.07
2018-05-10T00:45:14.990Z,19.00
2018-05-10T00:46:15.053Z,18.81
2018-05-10T00:48:08.109Z,18.68
2018-05-10T00:49:08.109Z,18.60
2018-05-10T00:51:01.112Z,18.52
2018-05-10T00:52:01.172Z,18.49
2018-05-10T00:53:54.191Z,18.38
2018-05-10T00:54:54.236Z,18.34
2018-05-10T00:56:47.229Z,18.34
2018-05-10T00:57:47.298Z,18.31
2018-05-10T00:59:40.302Z,18.31
2018-05-10T01:00:40.360Z,18.23
2018-05-10T01:02:33.351Z,18.29
2018-05-10T01:03:33.416Z,18.20
2018-05-10T01:05:26.425Z,18.00
2018-05-10T01:06:26.484Z,17.90
2018-05-10T01:08:19.479Z,17.85
2018-05-10T01:09:19.543Z,17.78
2018-05-10T01:11:12.549Z,17.79
2018-05-10T01:12:12.604Z,17.86
2018-05-10T01:14:05.612Z,17.80
2018-05-10T01:15:05.665Z,17.80
2018-05-10T01:16:58.657Z,17.80
2018-05-10T01:17:58.722Z,17.79
2018-05-10T01:19:51.723Z,17.79
2018-05-10T01:20:51.782Z,17.85
2018-05-10T01:22:44.776Z,17.85
2018-05-10T01:23:44.841Z,17.94
2018-05-10T01:25:37.842Z,17.95
2018-05-10T01:26:37.898Z,17.94
2018-05-10T01:28:30.893Z,17.92
2018-05-10T01:29:30.956Z,17.92
2018-05-10T01:31:23.966Z,17.97
2018-05-10T01:32:24.023Z,17.97
2018-05-10T01:34:17.027Z,17.95
2018-05-10T01:35:17.085Z,18.00
2018-05-10T01:37:10.088Z,18.03
2018-05-10T01:38:10.143Z,18.00
2018-05-10T01:40:03.145Z,18.10
2018-05-10T01:41:03.207Z,18.00
2018-05-10T01:42:56.199Z,17.79
2018-05-10T01:43:56.262Z,17.76
2018-05-10T01:45:49.265Z,17.74
2018-05-10T01:46:49.323Z,17.80
2018-05-10T01:48:42.322Z,17.71
2018-05-10T01:49:42.385Z,17.76
2018-05-10T01:51:35.384Z,17.72
2018-05-10T01:52:35.441Z,17.65
2018-05-10T01:54:28.446Z,17.65
2018-05-10T01:55:28.505Z,17.67
2018-05-10T01:57:21.504Z,17.68
2018-05-10T01:58:21.562Z,17.56
2018-05-10T02:00:14.570Z,17.67
2018-05-10T02:01:14.621Z,17.70
2018-05-10T02:03:07.619Z,17.68
2018-05-10T02:04:07.682Z,17.70
2018-05-10T02:06:00.690Z,17.82
2018-05-10T02:07:00.746Z,17.79
2018-05-10T02:08:53.736Z,17.83
2018-05-10T02:09:53.801Z,17.92
2018-05-10T02:11:46.801Z,17.89
2018-05-10T02:12:46.857Z,17.95
2018-05-10T02:14:39.914Z,18.04
2018-05-10T02:15:39.916Z,18.01
2018-05-10T02:17:32.918Z,17.94
2018-05-10T02:18:32.971Z,17.98
2018-05-10T02:20:25.978Z,17.92
2018-05-10T02:21:26.036Z,17.97
2018-05-10T02:23:19.029Z,18.11
2018-05-10T02:24:19.093Z,18.13
2018-05-10T02:26:12.095Z,18.04
2018-05-10T02:27:12.150Z,18.03
2018-05-10T02:29:05.151Z,18.04
2018-05-10T02:30:05.211Z,18.05
2018-05-10T02:31:58.213Z,17.94
2018-05-10T02:32:58.268Z,17.94
2018-05-10T02:34:51.282Z,17.87
2018-05-10T02:35:51.328Z,17.86
2018-05-10T02:37:44.325Z,17.82
2018-05-10T02:38:44.390Z,17.74
2018-05-10T02:40:37.388Z,17.67
2018-05-10T02:41:37.443Z,17.65
2018-05-10T02:43:30.436Z,17.63
2018-05-10T02:44:30.500Z,17.63
2018-05-10T02:46:23.504Z,17.68
2018-05-10T02:47:23.567Z,17.64
2018-05-10T02:49:16.556Z,17.65
2018-05-10T02:50:16.621Z,17.63
2018-05-10T02:52:09.626Z,17.63
2018-05-10T02:53:09.680Z,17.63
2018-05-10T02:55:02.689Z,17.76
2018-05-10T02:56:02.739Z,17.76
2018-05-10T02:57:55.739Z,17.76
2018-05-10T02:58:55.801Z,17.67
2018-05-10T03:00:48.800Z,17.74
2018-05-10T03:01:48.859Z,17.74
2018-05-10T03:03:41.857Z,17.79
2018-05-10T03:04:41.921Z,17.65
2018-05-10T03:06:34.916Z,17.76
2018-05-10T03:07:34.975Z,17.80
2018-05-10T03:09:27.964Z,17.70
2018-05-10T03:10:28.030Z,17.67
2018-05-10T03:12:21.034Z,17.70
2018-05-10T03:13:21.096Z,17.65
2018-05-10T03:15:14.100Z,17.68
2018-05-10T03:16:14.144Z,17.52
2018-05-10T03:18:07.137Z,17.56
2018-05-10T03:19:07.202Z,17.51
2018-05-10T03:21:01.712Z,17.39
2018-05-10T03:22:01.772Z,17.45
2018-05-10T03:23:54.762Z,17.44
2018-05-10T03:24:54.822Z,17.34
2018-05-10T03:26:47.829Z,17.27
2018-05-10T03:27:47.884Z,17.27
2018-05-10T03:29:40.878Z,17.15
2018-05-10T03:30:40.942Z,17.15
2018-05-10T03:32:33.943Z,17.26
2018-05-10T03:33:34.000Z,17.26
2018-05-10T03:35:27.083Z,17.19
2018-05-10T03:36:27.124Z,17.19
2018-05-10T03:38:20.049Z,17.08
2018-05-10T03:39:20.110Z,16.96
2018-05-10T03:41:13.115Z,17.11
2018-05-10T03:42:13.174Z,17.12
2018-05-10T03:44:06.167Z,17.11
2018-05-10T03:45:06.230Z,17.12
2018-05-10T03:46:59.239Z,17.26
2018-05-10T03:47:59.287Z,17.15
2018-05-10T03:49:52.284Z,17.12
2018-05-10T03:50:52.345Z,17.09
2018-05-10T03:52:45.351Z,17.12
2018-05-10T03:53:45.402Z,17.08
2018-05-10T03:55:38.417Z,17.09
2018-05-10T03:56:38.461Z,17.08
2018-05-10T03:58:31.459Z,17.06
2018-05-10T03:59:31.534Z,17.09
2018-05-10T04:01:24.523Z,17.04
2018-05-10T04:02:24.577Z,16.97
2018-05-10T04:04:17.574Z,17.05
2018-05-10T04:05:17.636Z,17.06
2018-05-10T04:07:10.633Z,16.99
2018-05-10T04:08:10.689Z,17.15
2018-05-10T04:10:03.687Z,17.09
2018-05-10T04:11:03.746Z,17.08
2018-05-10T04:12:56.749Z,17.04
2018-05-10T04:13:56.803Z,16.96
2018-05-10T04:15:49.825Z,17.05
2018-05-10T04:16:49.871Z,16.99
2018-05-10T04:18:42.858Z,17.11
2018-05-10T04:19:42.923Z,17.11
2018-05-10T04:21:36.435Z,17.05
2018-05-10T04:22:36.488Z,17.04
2018-05-10T04:24:29.485Z,17.09
2018-05-10T04:25:29.543Z,17.06
2018-05-10T04:27:22.550Z,17.08
2018-05-10T04:28:22.601Z,16.93
2018-05-10T04:30:15.599Z,16.97
2018-05-10T04:31:15.659Z,16.99
2018-05-10T04:33:08.666Z,16.94
2018-05-10T04:34:08.723Z,17.04
2018-05-10T04:36:01.734Z,16.96
2018-05-10T04:37:01.778Z,16.97
2018-05-10T04:38:54.769Z,16.97
2018-05-10T04:39:54.832Z,17.04
2018-05-10T04:41:47.840Z,17.04
2018-05-10T04:42:47.892Z,17.02
2018-05-10T04:44:40.882Z,17.01
2018-05-10T04:45:40.948Z,16.96
2018-05-10T04:47:33.952Z,16.97
2018-05-10T04:48:34.006Z,16.91
2018-05-10T04:50:26.998Z,16.99
2018-05-10T04:51:27.061Z,17.06
2018-05-10T04:53:20.063Z,16.94
2018-05-10T04:54:20.120Z,17.05
2018-05-10T04:56:13.140Z,17.02
2018-05-10T04:57:13.179Z,17.08
2018-05-10T04:59:06.171Z,16.96
2018-05-10T05:00:06.234Z,16.96
2018-05-10T05:01:59.238Z,16.97
2018-05-10T05:02:59.291Z,17.06
2018-05-10T05:04:52.289Z,16.94
2018-05-10T05:05:52.353Z,16.97
2018-05-10T05:07:45.345Z,17.08
2018-05-10T05:08:45.412Z,16.97
2018-05-10T05:10:38.399Z,16.99
2018-05-10T05:11:38.464Z,16.94
2018-05-10T05:13:31.465Z,17.02
2018-05-10T05:14:31.519Z,16.93
2018-05-10T05:16:24.532Z,16.94
2018-05-10T05:17:24.579Z,17.02
2018-05-10T05:19:17.574Z,16.94
2018-05-10T05:20:17.634Z,17.02
2018-05-10T05:22:10.635Z,16.93
2018-05-10T05:23:10.691Z,16.90
2018-05-10T05:25:03.696Z,16.86
2018-05-10T05:26:03.753Z,16.74
2018-05-10T05:27:56.753Z,16.72
2018-05-10T05:28:56.810Z,16.75
2018-05-10T05:30:49.803Z,16.61
2018-05-10T05:31:49.871Z,16.71
2018-05-10T05:33:42.868Z,16.74
2018-05-10T05:34:42.923Z,16.72
2018-05-10T05:36:35.956Z,16.74
2018-05-10T05:37:35.976Z,16.83
2018-05-10T05:39:28.973Z,16.76
2018-05-10T05:40:29.039Z,16.74
2018-05-10T05:42:22.040Z,16.79
2018-05-10T05:43:22.194Z,16.69
2018-05-10T05:45:15.086Z,16.64
2018-05-10T05:46:15.150Z,16.76
2018-05-10T05:48:08.154Z,16.75
2018-05-10T05:49:08.207Z,16.76
2018-05-10T05:51:01.207Z,16.83
2018-05-10T05:52:01.258Z,16.66
2018-05-10T05:53:54.266Z,16.71
2018-05-10T05:54:54.342Z,16.84
2018-05-10T05:56:47.331Z,16.90
2018-05-10T05:57:47.374Z,17.01
2018-05-10T05:59:40.365Z,16.99
2018-05-10T06:00:40.428Z,17.20
2018-05-10T06:02:33.442Z,17.16
2018-05-10T06:03:33.494Z,17.15
2018-05-10T06:05:26.485Z,17.33
2018-05-10T06:06:26.549Z,17.45
2018-05-10T06:08:19.553Z,17.74
2018-05-10T06:09:19.608Z,17.92
2018-05-10T06:11:12.605Z,18.66
2018-05-10T06:12:12.665Z,19.76
2018-05-10T06:14:05.671Z,21.45
2018-05-10T06:15:05.733Z,21.91
2018-05-10T06:16:58.737Z,22.59
2018-05-10T06:17:58.790Z,22.78
2018-05-10T06:19:51.785Z,22.81
2018-05-10T06:20:51.857Z,23.27
2018-05-10T06:22:44.865Z,23.99
2018-05-10T06:23:44.922Z,24.36
2018-05-10T06:25:37.920Z,24.88
2018-05-10T06:26:37.987Z,24.65
2018-05-10T06:28:31.003Z,24.14
2018-05-10T06:29:31.052Z,24.11
2018-05-10T06:31:24.063Z,23.69
2018-05-10T06:32:24.126Z,23.81
2018-05-10T06:34:17.137Z,24.43
2018-05-10T06:35:17.194Z,24.66
2018-05-10T06:37:10.205Z,22.87
2018-05-10T06:38:10.264Z,22.20
2018-05-10T06:40:03.282Z,21.54
2018-05-10T06:41:03.337Z,21.00
2018-05-10T06:42:56.349Z,20.80
2018-05-10T06:43:56.410Z,20.75
2018-05-10T06:45:49.411Z,20.65
2018-05-10T06:46:49.537Z,20.90
2018-05-10T06:48:42.999Z,21.64
2018-05-10T06:49:43.057Z,21.43
2018-05-10T06:51:36.058Z,20.99
2018-05-10T06:52:36.127Z,20.97
2018-05-10T06:54:29.132Z,20.80
2018-05-10T06:55:29.189Z,20.95
2018-05-10T06:57:22.212Z,21.17
2018-05-10T06:58:22.262Z,21.02
2018-05-10T07:00:15.280Z,21.21
2018-05-10T07:01:15.345Z,22.39
2018-05-10T07:03:08.361Z,23.20
2018-05-10T07:04:08.423Z,22.69
2018-05-10T07:06:01.417Z,21.82
2018-05-10T07:07:01.480Z,21.57
2018-05-10T07:08:54.490Z,20.92
2018-05-10T07:09:54.765Z,20.62
2018-05-10T07:11:47.560Z,20.44
2018-05-10T07:12:47.700Z,20.24
2018-05-10T07:14:40.632Z,19.92
2018-05-10T07:15:40.691Z,19.95
2018-05-10T07:17:33.709Z,20.06
2018-05-10T07:18:33.757Z,20.18
2018-05-10T07:20:26.755Z,20.10
2018-05-10T07:21:26.819Z,20.09
2018-05-10T07:23:19.830Z,19.88
2018-05-10T07:24:19.887Z,19.77
2018-05-10T07:26:12.889Z,19.67
2018-05-10T07:27:12.956Z,19.67
2018-05-10T07:29:05.989Z,19.41
2018-05-10T07:30:06.020Z,19.58
2018-05-10T07:31:59.016Z,19.48
2018-05-10T07:32:59.144Z,19.54
2018-05-10T07:34:52.091Z,19.22
2018-05-10T07:35:52.147Z,19.27
2018-05-10T07:37:45.165Z,19.37
2018-05-10T07:38:45.209Z,19.22
2018-05-10T07:40:38.212Z,19.41
2018-05-10T07:41:38.279Z,19.44
2018-05-10T07:43:31.289Z,19.29
2018-05-10T07:44:31.347Z,19.18
2018-05-10T07:46:24.353Z,19.36
2018-05-10T07:47:24.435Z,19.26
2018-05-10T07:49:17.939Z,19.44
2018-05-10T07:50:17.990Z,19.44
2018-05-10T07:52:11.046Z,19.64
2018-05-10T07:53:11.110Z,19.70
2018-05-10T07:55:04.060Z,19.77
2018-05-10T07:56:04.119Z,19.88
2018-05-10T07:57:57.148Z,19.85
2018-05-10T07:58:57.188Z,19.92
2018-05-10T08:00:50.174Z,20.24
2018-05-10T08:01:50.240Z,20.37
2018-05-10T08:03:43.246Z,20.70
2018-05-10T08:04:43.299Z,20.88
2018-05-10T08:06:36.301Z,21.35
2018-05-10T08:07:36.381Z,21.50
2018-05-10T08:09:29.405Z,22.57
2018-05-10T08:10:29.429Z,23.02
2018-05-10T08:12:22.429Z,24.54
2018-05-10T08:13:22.489Z,24.68
2018-05-10T08:15:15.508Z,24.66
2018-05-10T08:16:15.565Z,24.80
2018-05-10T08:18:08.583Z,25.59
2018-05-10T08:19:08.655Z,25.26
2018-05-10T08:21:01.641Z,24.42
2018-05-10T08:22:01.711Z,24.50
2018-05-10T08:23:54.839Z,24.40
2018-05-10T08:24:54.783Z,24.33
2018-05-10T08:26:47.788Z,24.23
2018-05-10T08:27:47.863Z,24.05
2018-05-10T08:29:40.874Z,24.26
2018-05-10T08:30:40.930Z,24.60
2018-05-10T08:32:33.937Z,24.65
2018-05-10T08:33:34.005Z,25.65
2018-05-10T08:35:27.024Z,25.59
2018-05-10T08:36:27.168Z,25.54
2018-05-10T08:38:20.128Z,25.98
2018-05-10T08:39:20.178Z,26.63
2018-05-10T08:41:13.181Z,26.36
2018-05-10T08:42:13.254Z,25.90
2018-05-10T08:44:06.269Z,24.74
2018-05-10T08:45:06.378Z,24.63
2018-05-10T08:46:59.338Z,24.29
2018-05-10T08:47:59.411Z,24.36
2018-05-10T08:49:52.475Z,24.51
2018-05-10T08:50:52.508Z,24.32
2018-05-10T08:52:45.510Z,24.13
2018-05-10T08:53:45.596Z,24.11
2018-05-10T08:55:38.613Z,24.16
2018-05-10T08:56:38.672Z,23.84
2018-05-10T08:58:31.730Z,23.71
2018-05-10T08:59:31.739Z,23.54
2018-05-10T09:01:24.754Z,23.06
2018-05-10T09:02:24.814Z,22.91
2018-05-10T09:04:17.828Z,22.38
2018-05-10T09:05:17.888Z,22.26
2018-05-10T09:07:10.895Z,21.89
2018-05-10T09:08:10.959Z,21.92
2018-05-10T09:10:03.982Z,21.92
2018-05-10T09:11:04.041Z,21.73
2018-05-10T09:12:57.048Z,21.69
2018-05-10T09:13:57.114Z,21.75
2018-05-10T09:15:50.133Z,21.50
2018-05-10T09:16:50.183Z,21.42
2018-05-10T09:18:43.720Z,21.21
2018-05-10T09:19:43.761Z,21.39
2018-05-10T09:21:36.766Z,21.60
2018-05-10T09:22:36.836Z,21.72
2018-05-10T09:24:29.845Z,21.66
2018-05-10T09:25:29.905Z,21.79
2018-05-10T09:27:22.902Z,21.64
2018-05-10T09:28:22.972Z,21.82
2018-05-10T09:30:15.991Z,21.91
2018-05-10T09:31:16.040Z,21.83
2018-05-10T09:33:09.048Z,21.96
2018-05-10T09:34:09.115Z,22.14
2018-05-10T09:36:02.153Z,22.13
2018-05-10T09:37:02.190Z,22.04
2018-05-10T09:38:55.209Z,21.83
2018-05-10T09:39:55.258Z,21.85
2018-05-10T09:41:48.266Z,21.79
2018-05-10T09:42:48.336Z,21.69
2018-05-10T09:44:41.341Z,21.30
2018-05-10T09:45:41.405Z,21.32
2018-05-10T09:47:34.416Z,21.24
2018-05-10T09:48:34.477Z,21.24
2018-05-10T09:50:27.486Z,21.22
2018-05-10T09:51:27.558Z,21.27
2018-05-10T09:53:20.549Z,21.15
2018-05-10T09:54:20.613Z,20.87
2018-05-10T09:56:13.631Z,20.66
2018-05-10T09:57:13.682Z,20.48
2018-05-10T09:59:06.703Z,20.39
2018-05-10T10:00:06.746Z,20.18
2018-05-10T10:01:59.748Z,20.28
2018-05-10T10:02:59.819Z,20.24
2018-05-10T10:04:52.828Z,20.03
2018-05-10T10:05:52.900Z,20.03
2018-05-10T10:07:45.896Z,19.67
2018-05-10T10:08:45.956Z,19.41
2018-05-10T10:10:38.980Z,19.39
2018-05-10T10:11:39.114Z,19.47
2018-05-10T10:13:32.039Z,19.47
2018-05-10T10:14:32.099Z,19.56
2018-05-10T10:16:25.105Z,19.54
2018-05-10T10:17:25.163Z,19.64
2018-05-10T10:19:18.699Z,19.66
2018-05-10T10:20:18.730Z,19.69
2018-05-10T10:22:11.734Z,19.79
2018-05-10T10:23:11.798Z,19.89
2018-05-10T10:25:04.804Z,19.94
2018-05-10T10:26:04.860Z,19.86
2018-05-10T10:27:57.857Z,19.77
2018-05-10T10:28:57.924Z,19.84
2018-05-10T10:30:50.940Z,19.94
2018-05-10T10:31:50.994Z,19.92
2018-05-10T10:33:43.995Z,19.94
2018-05-10T10:34:44.059Z,19.95
2018-05-10T10:36:37.072Z,20.06
2018-05-10T10:37:37.130Z,20.21
2018-05-10T10:39:30.169Z,20.36
2018-05-10T10:40:30.203Z,20.37
2018-05-10T10:42:23.200Z,19.86
2018-05-10T10:43:23.264Z,19.77
2018-05-10T10:45:17.318Z,19.51
2018-05-10T10:46:17.177Z,19.37
2018-05-10T10:48:10.175Z,19.36
2018-05-10T10:49:10.238Z,19.24
2018-05-10T10:51:03.243Z,19.12
2018-05-10T10:52:03.301Z,19.08
2018-05-10T10:53:56.381Z,19.02
2018-05-10T10:54:56.363Z,18.99
2018-05-10T10:56:49.401Z,19.08
2018-05-10T10:57:49.431Z,19.00
2018-05-10T10:59:42.443Z,19.12
2018-05-10T11:00:42.490Z,19.02
2018-05-10T11:02:35.487Z,18.92
2018-05-10T11:03:35.551Z,18.90
2018-05-10T11:05:28.636Z,18.93
2018-05-10T11:06:28.617Z,18.90
2018-05-10T11:08:21.612Z,18.92
2018-05-10T11:09:21.678Z,18.84
2018-05-10T11:11:14.681Z,18.88
2018-05-10T11:12:14.736Z,18.77
2018-05-10T11:14:07.752Z,18.84
2018-05-10T11:15:07.870Z,18.86
2018-05-10T11:17:00.840Z,18.98
2018-05-10T11:18:00.893Z,19.11
2018-05-10T11:19:53.900Z,19.00
2018-05-10T11:20:54.003Z,18.96
2018-05-10T11:22:46.955Z,18.96
2018-05-10T11:23:47.017Z,18.98
2018-05-10T11:25:40.019Z,18.90
2018-05-10T11:26:40.078Z,19.02
2018-05-10T11:28:33.128Z,19.08
2018-05-10T11:29:33.141Z,19.11
2018-05-10T11:31:26.150Z,19.33
2018-05-10T11:32:26.202Z,19.33
2018-05-10T11:34:19.201Z,19.59
2018-05-10T11:35:19.266Z,19.70
2018-05-10T11:37:12.273Z,19.56
2018-05-10T11:38:12.326Z,19.69
2018-05-10T11:40:05.344Z,19.77
2018-05-10T11:41:05.392Z,19.52
2018-05-10T11:42:58.393Z,19.19
2018-05-10T11:43:58.455Z,19.14
2018-05-10T11:45:51.460Z,19.00
2018-05-10T11:46:51.517Z,18.99
2018-05-10T11:48:44.522Z,18.81
2018-05-10T11:49:44.580Z,18.78
2018-05-10T11:51:37.594Z,18.88
2018-05-10T11:52:37.644Z,18.73
2018-05-10T11:54:30.640Z,18.80
2018-05-10T11:55:30.702Z,18.80
2018-05-10T11:57:23.776Z,18.77
2018-05-10T11:58:23.772Z,18.89
2018-05-10T12:00:16.772Z,18.80
2018-05-10T12:01:16.831Z,18.78
2018-05-10T12:03:09.847Z,18.81
2018-05-10T12:04:09.891Z,18.66
2018-05-10T12:06:02.923Z,18.62
2018-05-10T12:07:02.959Z,18.58
2018-05-10T12:08:55.955Z,18.62
2018-05-10T12:09:56.021Z,18.59
2018-05-10T12:11:49.028Z,18.53
2018-05-10T12:12:49.078Z,18.52
2018-05-10T12:14:42.080Z,18.29
2018-05-10T12:15:42.138Z,18.40
2018-05-10T12:17:35.141Z,18.33
2018-05-10T12:18:35.198Z,18.37
2018-05-10T12:20:28.299Z,18.29
2018-05-10T12:21:28.263Z,18.33
2018-05-10T12:23:21.259Z,18.40
2018-05-10T12:24:21.321Z,18.25
2018-05-10T12:26:14.852Z,18.07
2018-05-10T12:27:14.898Z,18.00
2018-05-10T12:29:07.898Z,18.03
2018-05-10T12:30:07.962Z,18.10
2018-05-10T12:32:00.965Z,18.11
2018-05-10T12:33:01.022Z,17.92
2018-05-10T12:34:54.021Z,17.87
2018-05-10T12:35:54.079Z,17.90
2018-05-10T12:37:47.086Z,17.90
2018-05-10T12:38:47.141Z,17.94
2018-05-10T12:40:40.157Z,17.97
2018-05-10T12:41:40.282Z,17.83
2018-05-10T12:43:33.192Z,17.82
2018-05-10T12:44:33.262Z,17.87
2018-05-10T12:46:26.256Z,17.82
2018-05-10T12:47:26.318Z,17.80
2018-05-10T12:49:19.315Z,17.79
2018-05-10T12:50:19.392Z,17.90
2018-05-10T12:52:12.390Z,17.83
2018-05-10T12:53:12.439Z,17.85
2018-05-10T12:55:05.438Z,17.82
2018-05-10T12:56:05.583Z,17.87
2018-05-10T12:57:58.513Z,17.85
2018-05-10T12:58:58.562Z,17.71
2018-05-10T13:00:51.655Z,17.90
2018-05-10T13:01:51.621Z,17.90
2018-05-10T13:03:44.614Z,17.86
2018-05-10T13:04:44.677Z,17.98
2018-05-10T13:06:37.687Z,18.00
2018-05-10T13:07:37.737Z,18.03
2018-05-10T13:09:30.730Z,18.15
2018-05-10T13:10:30.794Z,18.10
2018-05-10T13:12:23.797Z,17.98
2018-05-10T13:13:23.948Z,17.98
2018-05-10T13:15:16.916Z,17.89
2018-05-10T13:16:16.953Z,17.92
2018-05-10T13:18:09.913Z,17.97
2018-05-10T13:19:09.973Z,18.00
2018-05-10T13:21:02.971Z,18.08
2018-05-10T13:22:03.027Z,18.18
2018-05-10T13:23:56.022Z,18.31
2018-05-10T13:24:56.086Z,18.31
2018-05-10T13:26:49.596Z,18.37
2018-05-10T13:27:49.648Z,18.26
2018-05-10T13:29:43.151Z,18.08
2018-05-10T13:30:43.215Z,18.13
2018-05-10T13:32:36.233Z,18.07
2018-05-10T13:33:36.271Z,18.08
2018-05-10T13:35:29.274Z,18.05
2018-05-10T13:36:29.335Z,18.10
2018-05-10T13:38:22.344Z,18.08
2018-05-10T13:39:22.393Z,17.97
2018-05-10T13:41:15.413Z,17.94
2018-05-10T13:42:15.456Z,17.94
2018-05-10T13:44:08.445Z,17.92
2018-05-10T13:45:08.513Z,17.98
2018-05-10T13:47:01.521Z,18.05
2018-05-10T13:48:01.570Z,18.19
2018-05-10T13:49:54.568Z,17.98
2018-05-10T13:50:54.628Z,18.01
2018-05-10T13:52:47.634Z,18.08
2018-05-10T13:53:47.688Z,18.15
2018-05-10T13:55:40.681Z,18.03
2018-05-10T13:56:40.745Z,18.03
2018-05-10T13:58:33.757Z,17.98
2018-05-10T13:59:33.818Z,18.04
2018-05-10T14:01:26.835Z,17.85
2018-05-10T14:02:26.871Z,17.85
2018-05-10T14:04:19.869Z,17.86
2018-05-10T14:05:19.930Z,17.78
2018-05-10T14:07:12.931Z,17.68
2018-05-10T14:08:12.994Z,17.65
2018-05-10T14:10:05.984Z,17.68
2018-05-10T14:11:06.051Z,17.65
2018-05-10T14:12:59.044Z,17.71
2018-05-10T14:13:59.102Z,17.78
2018-05-10T14:15:52.094Z,17.78
2018-05-10T14:16:52.159Z,17.64
2018-05-10T14:18:45.159Z,17.49
2018-05-10T14:19:45.214Z,17.64
2018-05-10T14:21:38.231Z,17.57
2018-05-10T14:22:38.278Z,17.56
2018-05-10T14:24:31.271Z,17.51
2018-05-10T14:25:31.334Z,17.45
2018-05-10T14:27:24.339Z,17.42
2018-05-10T14:28:24.392Z,17.45
2018-05-10T14:30:17.412Z,17.49
2018-05-10T14:31:17.446Z,17.42
2018-05-10T14:33:10.489Z,17.46
2018-05-10T14:34:10.515Z,17.38
2018-05-10T14:36:03.493Z,17.42
2018-05-10T14:37:03.569Z,17.42
2018-05-10T14:38:56.564Z,17.49
2018-05-10T14:39:56.617Z,17.54
2018-05-10T14:41:49.628Z,17.51
2018-05-10T14:42:49.680Z,17.67
2018-05-10T14:44:42.669Z,17.64
2018-05-10T14:45:42.729Z,17.63
2018-05-10T14:47:35.732Z,17.68
2018-05-10T14:48:35.787Z,17.78
2018-05-10T14:50:28.785Z,17.65
2018-05-10T14:51:28.850Z,17.76
2018-05-10T14:53:21.881Z,17.74
2018-05-10T14:54:21.934Z,17.80
2018-05-10T14:56:14.936Z,17.87
2018-05-10T14:57:15.003Z,18.00
2018-05-10T14:59:08.018Z,18.03
2018-05-10T15:00:08.078Z,18.03
2018-05-10T15:02:01.094Z,18.07
2018-05-10T15:03:01.134Z,18.08
2018-05-10T15:04:54.130Z,18.04
2018-05-10T15:05:54.189Z,18.03
2018-05-10T15:07:47.251Z,18.19
2018-05-10T15:08:47.259Z,18.33
2018-05-10T15:10:40.255Z,18.38
2018-05-10T15:11:40.325Z,18.34
2018-05-10T15:13:33.335Z,18.40
2018-05-10T15:14:33.387Z,18.44
2018-05-10T15:16:26.386Z,18.44
2018-05-10T15:17:26.457Z,18.38
2018-05-10T15:19:19.468Z,18.31
2018-05-10T15:20:19.531Z,18.45
2018-05-10T15:22:12.556Z,18.31
2018-05-10T15:23:12.598Z,18.33
2018-05-10T15:25:05.608Z,18.13
2018-05-10T15:26:05.665Z,18.34
2018-05-10T15:27:58.698Z,18.34
2018-05-10T15:28:58.728Z,18.40
2018-05-10T15:30:51.735Z,18.49
2018-05-10T15:31:51.804Z,18.44
2018-05-10T15:33:44.809Z,18.53
2018-05-10T15:34:44.881Z,18.44
2018-05-10T15:36:37.855Z,18.38
2018-05-10T15:37:37.910Z,18.31
2018-05-10T15:39:31.424Z,18.26
2018-05-10T15:40:31.483Z,18.22
2018-05-10T15:42:24.486Z,18.22
2018-05-10T15:43:24.540Z,18.18
2018-05-10T15:45:17.534Z,18.18
2018-05-10T15:46:17.597Z,18.07
2018-05-10T15:48:10.629Z,18.16
2018-05-10T15:49:10.665Z,18.04
2018-05-10T15:51:03.660Z,18.04
2018-05-10T15:52:03.724Z,18.15
2018-05-10T15:53:56.725Z,18.11
2018-05-10T15:54:56.781Z,18.10
2018-05-10T15:56:49.778Z,18.22
2018-05-10T15:57:49.843Z,18.25
2018-05-10T15:59:42.853Z,18.34
2018-05-10T16:00:42.911Z,18.29
2018-05-10T16:02:35.920Z,18.53
2018-05-10T16:03:35.970Z,18.50
2018-05-10T16:05:28.973Z,18.59
2018-05-10T16:06:29.032Z,18.49
2018-05-10T16:08:22.039Z,18.43
2018-05-10T16:09:22.085Z,18.43
2018-05-10T16:11:15.090Z,18.41
2018-05-10T16:12:15.156Z,18.43
2018-05-10T16:14:08.178Z,18.52
2018-05-10T16:15:08.222Z,18.49
2018-05-10T16:17:01.213Z,18.40
2018-05-10T16:18:01.364Z,18.44
2018-05-10T16:19:54.285Z,18.44
2018-05-10T16:20:54.342Z,18.49
2018-05-10T16:22:47.353Z,18.59
2018-05-10T16:23:47.397Z,18.50
2018-05-10T16:25:40.389Z,18.60
2018-05-10T16:26:40.455Z,18.55
2018-05-10T16:28:33.460Z,18.60
2018-05-10T16:29:33.513Z,18.55
2018-05-10T16:31:26.519Z,18.52
2018-05-10T16:32:26.579Z,18.47
2018-05-10T16:34:19.571Z,18.43
2018-05-10T16:35:19.628Z,18.43
2018-05-10T16:37:12.623Z,18.43
2018-05-10T16:38:12.686Z,18.43
2018-05-10T16:40:05.687Z,18.34
2018-05-10T16:41:05.741Z,18.31
2018-05-10T16:42:58.765Z,18.25
2018-05-10T16:43:58.810Z,18.38
2018-05-10T16:45:51.807Z,18.19
2018-05-10T16:46:51.867Z,18.18
2018-05-10T16:48:44.881Z,18.15
2018-05-10T16:49:44.945Z,18.20
2018-05-10T16:51:37.946Z,18.07
2018-05-10T16:52:38.012Z,18.00
2018-05-10T16:54:31.014Z,17.92
2018-05-10T16:55:31.069Z,17.97
2018-05-10T16:57:24.066Z,17.83
2018-05-10T16:58:24.134Z,17.82
2018-05-10T17:00:17.133Z,17.78
2018-05-10T17:01:17.186Z,17.64
2018-05-10T17:03:10.206Z,17.63
2018-05-10T17:04:10.244Z,17.51
2018-05-10T17:06:03.248Z,17.41
2018-05-10T17:07:03.303Z,17.39
2018-05-10T17:08:56.307Z,17.30
2018-05-10T17:09:56.360Z,17.26
2018-05-10T17:11:49.355Z,17.19
2018-05-10T17:12:49.421Z,17.22
2018-05-10T17:14:42.429Z,17.15
2018-05-10T17:15:42.487Z,17.01
2018-05-10T17:17:35.482Z,16.89
2018-05-10T17:18:35.560Z,16.86
2018-05-10T17:20:28.543Z,16.71
2018-05-10T17:21:28.601Z,16.50
2018-05-10T17:23:21.601Z,16.43
2018-05-10T17:24:21.651Z,16.39
2018-05-10T17:26:15.151Z,16.17
2018-05-10T17:27:15.223Z,16.23
2018-05-10T17:29:08.215Z,16.16
2018-05-10T17:30:08.270Z,16.08
2018-05-10T17:32:01.269Z,15.92
2018-05-10T17:33:01.332Z,15.88
2018-05-10T17:34:54.336Z,15.83
2018-05-10T17:35:54.388Z,15.86
2018-05-10T17:37:47.380Z,15.82
2018-05-10T17:38:47.442Z,15.79
2018-05-10T17:40:40.444Z,15.79
2018-05-10T17:41:40.583Z,15.83
2018-05-10T17:43:33.515Z,15.77
2018-05-10T17:44:33.555Z,15.88
2018-05-10T17:46:26.560Z,15.91
2018-05-10T17:47:26.610Z,15.90
2018-05-10T17:49:19.610Z,15.92
2018-05-10T17:50:19.666Z,16.00
2018-05-10T17:52:12.658Z,16.10
2018-05-10T17:53:12.718Z,16.05
2018-05-10T17:55:05.718Z,16.23
2018-05-10T17:56:05.772Z,16.17
2018-05-10T17:57:58.762Z,16.16
2018-05-10T17:58:58.826Z,16.17
2018-05-10T18:00:51.914Z,16.16
2018-05-10T18:01:51.878Z,16.16
2018-05-10T18:03:44.896Z,16.17
2018-05-10T18:04:44.938Z,16.21
2018-05-10T18:06:37.929Z,16.10
2018-05-10T18:07:37.996Z,16.13
2018-05-10T18:09:30.990Z,16.02
2018-05-10T18:10:31.047Z,15.98
2018-05-10T18:12:24.035Z,16.04
2018-05-10T18:13:24.113Z,16.02
2018-05-10T18:15:17.100Z,16.09
2018-05-10T18:16:17.155Z,16.00
2018-05-10T18:18:10.144Z,16.05
2018-05-10T18:19:10.210Z,16.04
2018-05-10T18:21:03.212Z,15.98
2018-05-10T18:22:03.268Z,16.05
2018-05-10T18:23:56.267Z,16.09
2018-05-10T18:24:56.318Z,16.15
2018-05-10T18:26:49.812Z,16.16
2018-05-10T18:27:49.877Z,16.16
2018-05-10T18:29:42.924Z,16.23
2018-05-10T18:30:42.940Z,16.17
2018-05-10T18:32:35.937Z,16.28
2018-05-10T18:33:35.997Z,16.23